createdAt,value
2023-05-05T00:01:08.734Z,12.92
2023-05-05T00:03:35.744Z,12.75
2023-05-05T00:06:02.845Z,12.77
2023-05-05T00:08:29.656Z,12.56
2023-05-05T00:10:57.375Z,12.87
2023-05-05T00:13:24.248Z,12.81
2023-05-05T00:15:53.420Z,12.79
2023-05-05T00:18:21.012Z,12.85
2023-05-05T00:20:48.133Z,12.71
2023-05-05T00:23:16.013Z,12.73
2023-05-05T00:25:42.590Z,12.74
2023-05-05T00:28:09.094Z,12.51
2023-05-05T00:30:37.290Z,12.41
2023-05-05T00:33:04.016Z,12.33
2023-05-05T00:35:30.758Z,11.99
2023-05-05T00:37:57.383Z,11.98
2023-05-05T00:40:25.038Z,11.94
2023-05-05T00:42:52.112Z,11.76
2023-05-05T00:45:19.802Z,12.01
2023-05-05T00:47:48.536Z,12.07
2023-05-05T00:50:22.914Z,12.14
2023-05-05T00:52:50.524Z,12.10
2023-05-05T00:55:17.791Z,12.03
2023-05-05T00:57:45.377Z,12.17
2023-05-05T01:00:12.660Z,12.10
2023-05-05T01:02:39.876Z,12.00
2023-05-05T01:05:08.575Z,11.78
2023-05-05T01:08:04.585Z,11.84
2023-05-05T01:10:31.160Z,11.98
2023-05-05T01:13:20.544Z,11.82
2023-05-05T01:15:53.357Z,11.86
2023-05-05T01:18:35.882Z,11.98
2023-05-05T01:21:14.557Z,11.75
2023-05-05T01:23:46.988Z,11.76
2023-05-05T01:26:31.514Z,11.81
2023-05-05T01:29:15.012Z,11.91
2023-05-05T01:31:51.767Z,11.74
2023-05-05T01:34:27.888Z,11.51
2023-05-05T01:37:07.438Z,11.18
2023-05-05T01:39:35.900Z,11.59
2023-05-05T01:42:08.099Z,11.71
2023-05-05T01:44:36.818Z,11.62
2023-05-05T01:47:04.974Z,11.40
2023-05-05T01:49:33.414Z,11.64
2023-05-05T01:52:03.675Z,11.62
2023-05-05T01:54:34.168Z,11.67
2023-05-05T01:57:04.796Z,11.63
2023-05-05T01:59:32.718Z,11.70
2023-05-05T02:02:02.004Z,11.52
2023-05-05T02:04:30.076Z,11.51
2023-05-05T02:07:00.016Z,11.40
2023-05-05T02:09:28.560Z,11.23
2023-05-05T02:11:57.934Z,11.11
2023-05-05T02:14:28.850Z,11.20
2023-05-05T02:16:56.869Z,11.26
2023-05-05T02:19:29.582Z,11.23
2023-05-05T02:21:56.983Z,11.41
2023-05-05T02:24:24.571Z,11.41
2023-05-05T02:26:53.221Z,11.12
2023-05-05T02:29:24.340Z,11.40
2023-05-05T02:31:55.294Z,11.40
2023-05-05T02:34:27.983Z,11.56
2023-05-05T02:37:03.282Z,11.35
2023-05-05T02:39:39.468Z,11.46
2023-05-05T02:42:15.203Z,11.46
2023-05-05T02:44:44.329Z,11.39
2023-05-05T02:47:11.784Z,11.29
2023-05-05T02:49:38.328Z,11.35
2023-05-05T02:52:05.017Z,11.30
2023-05-05T02:54:35.070Z,11.25
2023-05-05T02:57:06.200Z,11.34
2023-05-05T02:59:57.799Z,11.25
2023-05-05T03:02:54.365Z,11.24
2023-05-05T03:05:25.130Z,11.13
2023-05-05T03:08:16.840Z,11.24
2023-05-05T03:11:03.270Z,11.12
2023-05-05T03:13:32.354Z,11.02
2023-05-05T03:16:04.501Z,10.97
2023-05-05T03:18:31.666Z,10.73
2023-05-05T03:21:08.642Z,10.93
2023-05-05T03:23:37.828Z,10.80
2023-05-05T03:26:08.836Z,10.73
2023-05-05T03:28:39.884Z,10.75
2023-05-05T03:31:14.649Z,10.58
2023-05-05T03:33:41.364Z,10.64
2023-05-05T03:36:08.081Z,10.63
2023-05-05T03:38:34.909Z,10.65
2023-05-05T03:41:03.447Z,10.73
2023-05-05T03:43:31.026Z,10.65
2023-05-05T03:45:57.949Z,10.36
2023-05-05T03:48:24.988Z,10.69
2023-05-05T03:50:52.770Z,10.67
2023-05-05T03:53:21.036Z,10.63
2023-05-05T03:55:48.746Z,10.62
2023-05-05T03:58:15.242Z,10.58
2023-05-05T04:00:42.239Z,10.35
2023-05-05T04:03:10.887Z,10.23
2023-05-05T04:05:37.881Z,10.34
2023-05-05T04:08:04.684Z,10.37
2023-05-05T04:10:31.553Z,10.44
2023-05-05T04:12:58.232Z,10.55
2023-05-05T04:15:24.840Z,10.55
2023-05-05T04:17:51.400Z,10.58
2023-05-05T04:20:18.910Z,10.61
2023-05-05T04:22:45.967Z,10.64
2023-05-05T04:25:12.751Z,10.43
2023-05-05T04:27:39.264Z,10.47
2023-05-05T04:30:07.413Z,10.57
2023-05-05T04:32:36.533Z,10.66
2023-05-05T04:35:04.021Z,10.71
2023-05-05T04:37:30.591Z,10.78
2023-05-05T04:39:58.649Z,10.58
2023-05-05T04:42:25.821Z,10.42
2023-05-05T04:44:52.757Z,10.32
2023-05-05T04:47:19.328Z,10.27
2023-05-05T04:49:45.908Z,10.44
2023-05-05T04:52:13.509Z,10.59
2023-05-05T04:54:40.694Z,10.70
2023-05-05T04:57:07.532Z,10.63
2023-05-05T04:59:35.125Z,10.75
2023-05-05T05:02:01.770Z,10.79
2023-05-05T05:04:28.249Z,10.81
2023-05-05T05:06:56.235Z,11.07
2023-05-05T05:09:25.417Z,10.93
2023-05-05T05:11:52.773Z,11.16
2023-05-05T05:14:20.669Z,11.20
2023-05-05T05:16:51.045Z,11.23
2023-05-05T05:19:17.874Z,11.27
2023-05-05T05:21:44.458Z,11.30
2023-05-05T05:24:11.511Z,11.52
2023-05-05T05:26:38.768Z,11.80
2023-05-05T05:29:06.128Z,12.12
2023-05-05T05:31:34.262Z,12.41
2023-05-05T05:34:00.994Z,12.75
2023-05-05T05:36:28.292Z,13.03
2023-05-05T05:38:54.746Z,13.32
2023-05-05T05:41:21.551Z,13.71
2023-05-05T05:43:48.205Z,14.18
2023-05-05T05:46:14.849Z,14.43
2023-05-05T05:48:42.525Z,14.45
2023-05-05T05:51:09.115Z,14.83
2023-05-05T05:53:35.729Z,15.38
2023-05-05T05:56:02.273Z,15.73
2023-05-05T05:58:28.936Z,16.31
2023-05-05T06:00:55.458Z,16.67
2023-05-05T06:03:22.058Z,16.90
2023-05-05T06:05:48.711Z,16.50
2023-05-05T06:08:15.664Z,16.08
2023-05-05T06:10:48.179Z,15.76
2023-05-05T06:13:18.025Z,15.09
2023-05-05T06:15:47.936Z,15.42
2023-05-05T06:18:15.285Z,15.52
2023-05-05T06:20:43.380Z,15.55
2023-05-05T06:23:11.216Z,15.73
2023-05-05T06:25:42.159Z,16.16
2023-05-05T06:28:08.723Z,16.59
2023-05-05T06:30:35.172Z,16.95
2023-05-05T06:33:01.642Z,17.42
2023-05-05T06:35:30.206Z,17.72
2023-05-05T06:37:56.664Z,18.20
2023-05-05T06:40:23.287Z,18.69
2023-05-05T06:42:49.920Z,19.24
2023-05-05T06:45:22.189Z,19.79
2023-05-05T06:47:49.159Z,20.22
2023-05-05T06:50:15.696Z,20.43
2023-05-05T06:52:42.474Z,20.53
2023-05-05T06:55:09.693Z,20.55
2023-05-05T06:57:36.193Z,20.43
2023-05-05T07:00:05.698Z,20.42
2023-05-05T07:02:33.567Z,20.45
2023-05-05T07:05:00.238Z,20.34
2023-05-05T07:07:26.884Z,20.48
2023-05-05T07:09:53.301Z,20.62
2023-05-05T07:12:19.864Z,20.79
2023-05-05T07:14:46.707Z,20.90
2023-05-05T07:17:13.234Z,21.12
2023-05-05T07:19:39.769Z,21.36
2023-05-05T07:22:06.276Z,21.64
2023-05-05T07:24:32.773Z,22.04
2023-05-05T07:26:59.297Z,22.05
2023-05-05T07:29:25.856Z,22.30
2023-05-05T07:31:52.410Z,22.42
2023-05-05T07:34:18.841Z,22.48
2023-05-05T07:36:45.447Z,22.62
2023-05-05T07:39:14.906Z,22.80
2023-05-05T07:41:42.376Z,23.37
2023-05-05T07:44:08.894Z,23.71
2023-05-05T07:46:35.396Z,23.82
2023-05-05T07:49:01.908Z,23.88
2023-05-05T07:51:28.351Z,23.93
2023-05-05T07:53:55.724Z,23.93
2023-05-05T07:56:22.145Z,23.49
2023-05-05T07:58:48.558Z,23.50
2023-05-05T08:01:15.010Z,23.58
2023-05-05T08:03:41.737Z,23.64
2023-05-05T08:06:14.406Z,23.46
2023-05-05T08:08:40.858Z,23.79
2023-05-05T08:11:07.934Z,24.19
2023-05-05T08:13:34.609Z,24.51
2023-05-05T08:16:01.212Z,24.63
2023-05-05T08:18:27.858Z,24.84
2023-05-05T08:20:54.719Z,25.12
2023-05-05T08:23:21.633Z,25.01
2023-05-05T08:25:48.104Z,25.20
2023-05-05T08:28:14.612Z,25.31
2023-05-05T08:30:41.316Z,25.39
2023-05-05T08:33:07.843Z,25.27
2023-05-05T08:35:34.373Z,25.48
2023-05-05T08:38:00.797Z,25.50
2023-05-05T08:40:32.096Z,25.77
2023-05-05T08:42:59.144Z,25.88
2023-05-05T08:45:27.451Z,25.95
2023-05-05T08:47:56.301Z,26.09
2023-05-05T08:50:26.859Z,26.32
2023-05-05T08:53:08.115Z,26.49
2023-05-05T08:55:35.840Z,26.55
2023-05-05T08:58:05.680Z,26.65
2023-05-05T09:00:33.450Z,26.87
2023-05-05T09:03:01.352Z,26.88
2023-05-05T09:05:28.013Z,26.90
2023-05-05T09:07:54.471Z,26.81
2023-05-05T09:10:21.525Z,26.44
2023-05-05T09:12:50.372Z,26.51
2023-05-05T09:15:16.840Z,26.46
2023-05-05T09:17:44.124Z,26.20
2023-05-05T09:20:12.781Z,26.30
2023-05-05T09:22:43.070Z,26.22
2023-05-05T09:25:11.957Z,26.39
2023-05-05T09:27:43.673Z,26.33
2023-05-05T09:30:12.359Z,26.55
2023-05-05T09:32:52.980Z,26.80
2023-05-05T09:35:20.423Z,26.67
2023-05-05T09:37:47.092Z,26.54
2023-05-05T09:40:15.295Z,26.13
2023-05-05T09:42:41.868Z,26.17
2023-05-05T09:45:25.975Z,26.00
2023-05-05T09:47:58.799Z,25.74
2023-05-05T09:50:30.095Z,25.58
2023-05-05T09:53:01.381Z,25.58
2023-05-05T09:55:28.822Z,25.36
2023-05-05T09:57:55.696Z,24.98
2023-05-05T10:00:22.674Z,24.84
2023-05-05T10:02:49.202Z,24.77
2023-05-05T10:05:18.087Z,24.84
2023-05-05T10:07:46.251Z,24.73
2023-05-05T10:10:15.469Z,24.74
2023-05-05T10:12:42.451Z,25.14
2023-05-05T10:15:10.616Z,25.28
2023-05-05T10:18:02.818Z,25.36
2023-05-05T10:20:33.352Z,25.48
2023-05-05T10:23:05.485Z,25.44
2023-05-05T10:25:39.052Z,25.18
2023-05-05T10:28:06.820Z,25.09
2023-05-05T10:30:39.474Z,24.89
2023-05-05T10:33:31.078Z,24.82
2023-05-05T10:36:01.656Z,24.72
2023-05-05T10:38:30.895Z,24.85
2023-05-05T10:41:00.007Z,25.16
2023-05-05T10:43:28.272Z,25.52
2023-05-05T10:45:55.676Z,25.35
2023-05-05T10:48:32.239Z,24.96
2023-05-05T10:51:39.398Z,24.61
2023-05-05T10:54:30.153Z,24.60
2023-05-05T10:57:01.219Z,24.62
2023-05-05T10:59:36.911Z,24.64
2023-05-05T11:02:29.462Z,24.41
2023-05-05T11:05:31.867Z,24.37
2023-05-05T11:08:25.021Z,24.64
2023-05-05T11:10:51.456Z,24.82
2023-05-05T11:13:19.479Z,25.01
2023-05-05T11:15:46.082Z,25.20
2023-05-05T11:18:30.547Z,25.21
2023-05-05T11:20:59.980Z,25.05
2023-05-05T11:23:26.831Z,25.15
2023-05-05T11:25:54.117Z,25.11
2023-05-05T11:28:24.912Z,25.27
2023-05-05T11:31:17.918Z,25.25
2023-05-05T11:33:45.092Z,25.39
2023-05-05T11:36:14.364Z,25.35
2023-05-05T11:39:17.817Z,25.29
2023-05-05T11:42:32.146Z,25.43
2023-05-05T11:44:59.342Z,25.52
2023-05-05T11:47:27.589Z,25.36
2023-05-05T11:49:55.503Z,25.31
2023-05-05T11:52:24.292Z,25.32
2023-05-05T11:54:51.286Z,25.29
2023-05-05T11:57:28.036Z,25.11
2023-05-05T11:59:56.150Z,25.09
2023-05-05T12:02:24.053Z,25.05
2023-05-05T12:04:50.931Z,24.94
2023-05-05T12:07:19.357Z,25.01
2023-05-05T12:09:46.973Z,24.79
2023-05-05T12:12:14.606Z,24.74
2023-05-05T12:14:52.442Z,24.71
2023-05-05T12:17:20.532Z,24.69
2023-05-05T12:19:54.184Z,24.88
2023-05-05T12:22:28.052Z,24.94
2023-05-05T12:24:58.959Z,25.12
2023-05-05T12:27:27.477Z,25.25
2023-05-05T12:29:55.462Z,25.18
2023-05-05T12:32:24.504Z,25.23
2023-05-05T12:34:57.309Z,25.19
2023-05-05T12:37:26.128Z,25.27
2023-05-05T12:39:54.735Z,25.08
2023-05-05T12:42:22.061Z,24.91
2023-05-05T12:44:49.120Z,25.01
2023-05-05T12:47:28.708Z,24.83
2023-05-05T12:49:55.279Z,24.81
2023-05-05T12:52:21.823Z,24.81
2023-05-05T12:54:59.358Z,24.66
2023-05-05T12:57:26.023Z,24.54
2023-05-05T12:59:53.356Z,24.41
2023-05-05T13:02:21.128Z,23.14
2023-05-05T13:04:52.956Z,23.12
2023-05-05T13:07:21.157Z,22.54
2023-05-05T13:09:51.283Z,22.86
2023-05-05T13:12:18.700Z,23.21
2023-05-05T13:14:46.557Z,23.45
2023-05-05T13:17:13.825Z,23.68
2023-05-05T13:19:46.123Z,23.31
2023-05-05T13:22:13.317Z,23.48
2023-05-05T13:24:50.764Z,23.47
2023-05-05T13:27:19.637Z,23.50
2023-05-05T13:29:46.581Z,23.55
2023-05-05T13:32:13.032Z,23.60
2023-05-05T13:34:39.674Z,23.61
2023-05-05T13:37:06.390Z,23.60
2023-05-05T13:39:33.162Z,23.59
2023-05-05T13:41:59.682Z,23.54
2023-05-05T13:44:26.096Z,23.59
2023-05-05T13:46:52.577Z,23.52
2023-05-05T13:49:20.066Z,23.47
2023-05-05T13:51:47.034Z,23.43
2023-05-05T13:54:13.868Z,23.51
2023-05-05T13:56:40.461Z,23.66
2023-05-05T13:59:06.958Z,23.58
2023-05-05T14:01:33.619Z,22.97
2023-05-05T14:04:01.516Z,23.08
2023-05-05T14:06:30.444Z,23.12
2023-05-05T14:08:56.839Z,23.16
2023-05-05T14:11:23.290Z,22.85
2023-05-05T14:13:49.791Z,22.82
2023-05-05T14:16:16.684Z,22.42
2023-05-05T14:18:43.184Z,22.77
2023-05-05T14:21:09.821Z,22.70
2023-05-05T14:23:36.257Z,22.67
2023-05-05T14:26:02.755Z,22.63
2023-05-05T14:28:29.220Z,22.56
2023-05-05T14:30:56.013Z,22.44
2023-05-05T14:33:22.524Z,22.27
2023-05-05T14:35:49.127Z,22.15
2023-05-05T14:38:15.652Z,21.87
2023-05-05T14:40:42.311Z,21.55
2023-05-05T14:43:08.762Z,21.38
2023-05-05T14:45:35.292Z,21.24
2023-05-05T14:48:02.348Z,21.26
2023-05-05T14:50:28.768Z,21.10
2023-05-05T14:52:55.174Z,21.04
2023-05-05T14:55:21.737Z,21.11
2023-05-05T14:57:48.116Z,20.33
2023-05-05T15:00:14.928Z,20.84
2023-05-05T15:02:41.518Z,20.73
2023-05-05T15:05:08.645Z,20.75
2023-05-05T15:07:35.294Z,20.74
2023-05-05T15:10:01.850Z,20.65
2023-05-05T15:12:28.286Z,20.52
2023-05-05T15:14:55.404Z,20.38
2023-05-05T15:17:22.122Z,20.22
2023-05-05T15:19:48.596Z,20.01
2023-05-05T15:22:15.048Z,19.87
2023-05-05T15:24:41.476Z,19.73
2023-05-05T15:27:08.171Z,19.42
2023-05-05T15:29:34.629Z,19.19
2023-05-05T15:32:01.397Z,19.05
2023-05-05T15:34:27.910Z,18.89
2023-05-05T15:36:54.806Z,18.73
2023-05-05T15:39:21.411Z,18.68
2023-05-05T15:41:47.850Z,18.63
2023-05-05T15:44:14.348Z,18.62
2023-05-05T15:46:41.262Z,18.27
2023-05-05T15:49:07.823Z,18.35
2023-05-05T15:51:34.278Z,18.24
2023-05-05T15:54:00.821Z,18.27
2023-05-05T15:56:27.476Z,18.26
2023-05-05T15:58:54.291Z,18.21
2023-05-05T16:01:21.013Z,18.23
2023-05-05T16:03:47.504Z,18.26
2023-05-05T16:06:14.041Z,18.11
2023-05-05T16:08:40.794Z,18.12
2023-05-05T16:11:07.196Z,18.08
2023-05-05T16:13:33.656Z,18.06
2023-05-05T16:16:00.149Z,17.92
2023-05-05T16:18:26.637Z,18.04
2023-05-05T16:20:53.093Z,17.98
2023-05-05T16:23:19.486Z,17.82
2023-05-05T16:25:45.909Z,17.77
2023-05-05T16:28:12.438Z,17.76
2023-05-05T16:30:39.822Z,17.75
2023-05-05T16:33:06.772Z,17.70
2023-05-05T16:35:33.466Z,17.52
2023-05-05T16:37:59.902Z,17.61
2023-05-05T16:40:26.350Z,17.61
2023-05-05T16:42:52.866Z,17.57
2023-05-05T16:45:19.333Z,17.65
2023-05-05T16:47:45.827Z,17.66
2023-05-05T16:50:12.320Z,17.58
2023-05-05T16:52:38.884Z,17.61
2023-05-05T16:55:05.539Z,17.65
2023-05-05T16:57:31.937Z,17.70
2023-05-05T16:59:58.399Z,17.53
2023-05-05T17:02:24.956Z,17.72
2023-05-05T17:04:51.532Z,17.72
2023-05-05T17:07:18.034Z,17.69
2023-05-05T17:09:44.640Z,17.68
2023-05-05T17:12:11.160Z,17.74
2023-05-05T17:14:37.750Z,17.70
2023-05-05T17:17:04.331Z,17.72
2023-05-05T17:19:31.301Z,17.53
2023-05-05T17:21:57.735Z,17.77
2023-05-05T17:24:24.262Z,17.84
2023-05-05T17:26:50.823Z,17.69
2023-05-05T17:29:21.513Z,17.59
2023-05-05T17:31:48.085Z,17.47
2023-05-05T17:34:14.544Z,17.42
2023-05-05T17:36:41.102Z,17.55
2023-05-05T17:39:08.092Z,17.46
2023-05-05T17:41:34.543Z,17.53
2023-05-05T17:44:00.977Z,17.00
2023-05-05T17:46:27.921Z,17.44
2023-05-05T17:48:55.131Z,17.48
2023-05-05T17:51:21.629Z,17.51
2023-05-05T17:53:48.024Z,17.42
2023-05-05T17:56:14.421Z,17.55
2023-05-05T17:58:41.230Z,17.61
2023-05-05T18:01:07.762Z,17.50
2023-05-05T18:03:34.309Z,17.49
2023-05-05T18:06:02.205Z,17.45
2023-05-05T18:08:28.668Z,17.47
2023-05-05T18:10:55.061Z,17.38
2023-05-05T18:13:21.529Z,17.45
2023-05-05T18:15:48.034Z,17.38
2023-05-05T18:18:14.633Z,17.43
2023-05-05T18:20:41.213Z,17.34
2023-05-05T18:23:07.719Z,17.26
2023-05-05T18:25:34.101Z,17.25
2023-05-05T18:28:00.516Z,17.26
2023-05-05T18:30:27.513Z,17.22
2023-05-05T18:32:54.002Z,17.20
2023-05-05T18:35:21.373Z,17.24
2023-05-05T18:37:47.999Z,17.10
2023-05-05T18:40:14.503Z,17.05
2023-05-05T18:42:41.687Z,17.08
2023-05-05T18:45:10.546Z,16.89
2023-05-05T18:47:38.370Z,16.98
2023-05-05T18:50:06.123Z,16.97
2023-05-05T18:52:33.081Z,16.93
2023-05-05T18:54:59.725Z,16.92
2023-05-05T18:57:27.272Z,16.87
2023-05-05T18:59:53.715Z,16.96
2023-05-05T19:02:20.201Z,16.48
2023-05-05T19:04:46.761Z,16.83
2023-05-05T19:07:23.858Z,16.75
2023-05-05T19:09:58.024Z,16.63
2023-05-05T19:12:24.472Z,16.60
2023-05-05T19:14:50.898Z,16.53
2023-05-05T19:17:17.487Z,16.44
2023-05-05T19:19:44.023Z,16.47
2023-05-05T19:22:10.443Z,16.54
2023-05-05T19:24:36.978Z,16.30
2023-05-05T19:27:03.904Z,16.43
2023-05-05T19:29:33.358Z,16.39
2023-05-05T19:31:59.846Z,16.24
2023-05-05T19:34:26.323Z,16.08
2023-05-05T19:36:52.817Z,16.12
2023-05-05T19:39:19.243Z,16.10
2023-05-05T19:41:45.868Z,16.04
2023-05-05T19:44:12.360Z,16.08
2023-05-05T19:46:39.190Z,15.99
2023-05-05T19:49:06.125Z,15.84
2023-05-05T19:51:32.614Z,15.86
2023-05-05T19:53:59.415Z,15.81
2023-05-05T19:56:26.246Z,15.85
2023-05-05T19:58:57.518Z,15.83
2023-05-05T20:01:24.177Z,15.85
2023-05-05T20:03:52.407Z,15.71
2023-05-05T20:06:19.051Z,15.64
2023-05-05T20:08:45.545Z,15.42
2023-05-05T20:11:12.441Z,15.38
2023-05-05T20:13:39.050Z,15.13
2023-05-05T20:16:06.443Z,14.95
2023-05-05T20:18:33.049Z,15.10
2023-05-05T20:20:59.664Z,15.05
2023-05-05T20:23:26.612Z,15.04
2023-05-05T20:25:54.201Z,15.00
2023-05-05T20:28:20.784Z,15.00
2023-05-05T20:30:47.193Z,15.03
2023-05-05T20:33:13.630Z,14.91
2023-05-05T20:35:40.102Z,14.92
2023-05-05T20:38:06.546Z,14.91
2023-05-05T20:40:33.593Z,14.86
2023-05-05T20:43:00.194Z,14.92
2023-05-05T20:45:26.673Z,14.87
2023-05-05T20:47:53.310Z,14.77
2023-05-05T20:50:22.386Z,14.68
2023-05-05T20:52:49.391Z,14.62
2023-05-05T20:55:15.865Z,14.65
2023-05-05T20:57:42.300Z,14.66
2023-05-05T21:00:09.385Z,14.59
2023-05-05T21:02:37.340Z,14.64
2023-05-05T21:05:04.417Z,14.58
2023-05-05T21:07:34.234Z,14.55
2023-05-05T21:10:04.639Z,14.60
2023-05-05T21:12:31.194Z,14.53
2023-05-05T21:14:58.793Z,14.48
2023-05-05T21:17:29.235Z,14.38
2023-05-05T21:19:56.016Z,14.19
2023-05-05T21:22:22.846Z,14.15
2023-05-05T21:24:49.332Z,14.13
2023-05-05T21:27:15.936Z,14.10
2023-05-05T21:29:42.332Z,14.00
2023-05-05T21:32:10.583Z,14.01
2023-05-05T21:34:38.047Z,13.89
2023-05-05T21:37:05.534Z,13.82
2023-05-05T21:39:33.171Z,13.67
2023-05-05T21:42:00.580Z,13.39
2023-05-05T21:44:28.111Z,13.17
2023-05-05T21:46:55.056Z,13.07
2023-05-05T21:49:21.704Z,12.76
2023-05-05T21:51:48.149Z,12.91
2023-05-05T21:54:14.647Z,12.80
2023-05-05T21:56:41.125Z,12.87
2023-05-05T21:59:07.616Z,12.63
2023-05-05T22:01:34.174Z,12.58
2023-05-05T22:04:00.654Z,12.48
2023-05-05T22:06:27.210Z,12.77
2023-05-05T22:08:53.688Z,12.71
2023-05-05T22:11:20.194Z,12.89
2023-05-05T22:13:46.663Z,12.84
2023-05-05T22:16:16.409Z,12.72
2023-05-05T22:18:43.369Z,12.59
2023-05-05T22:21:10.109Z,12.43
2023-05-05T22:23:37.248Z,12.30
2023-05-05T22:26:04.774Z,11.96
2023-05-05T22:28:31.291Z,12.08
2023-05-05T22:30:57.756Z,12.06
2023-05-05T22:33:24.384Z,12.07
2023-05-05T22:35:51.938Z,11.95
2023-05-05T22:38:18.658Z,11.88
2023-05-05T22:40:45.407Z,12.24
2023-05-05T22:43:12.136Z,12.25
2023-05-05T22:45:38.642Z,12.15
2023-05-05T22:48:05.587Z,12.24
2023-05-05T22:50:32.264Z,12.30
2023-05-05T22:52:58.769Z,12.34
2023-05-05T22:55:25.276Z,12.08
2023-05-05T22:57:52.681Z,12.28
2023-05-05T23:00:19.601Z,12.20
2023-05-05T23:02:46.045Z,12.27
2023-05-05T23:05:12.775Z,11.96
2023-05-05T23:07:39.446Z,12.10
2023-05-05T23:10:06.359Z,11.97
2023-05-05T23:12:33.039Z,11.32
2023-05-05T23:14:59.500Z,11.38
2023-05-05T23:17:25.983Z,10.68
2023-05-05T23:19:52.482Z,11.01
2023-05-05T23:22:18.907Z,10.89
2023-05-05T23:24:45.281Z,10.97
2023-05-05T23:27:12.121Z,11.04
2023-05-05T23:29:38.684Z,11.19
2023-05-05T23:32:05.679Z,11.44
2023-05-05T23:34:32.231Z,11.44
2023-05-05T23:36:58.658Z,11.33
2023-05-05T23:39:25.086Z,11.50
2023-05-05T23:41:51.562Z,11.44
2023-05-05T23:44:17.948Z,11.46
2023-05-05T23:46:44.398Z,11.43
2023-05-05T23:49:10.885Z,11.56
2023-05-05T23:51:37.487Z,11.57
2023-05-05T23:54:04.143Z,11.67
2023-05-05T23:56:30.622Z,11.67
2023-05-05T23:58:57.101Z,11.48
